Latest Weather Observations for Redcliffe

IDQ60901

Issued at 5:21 pm EST Monday 17 January 2022 (issued every 10 minutes, with the page automatically refreshed every 10 minutes)

About weather observations | Map of Brisbane area stations | Latest observations for Brisbane area | Other Formats
Station Details ID: 040958 Name: REDCLIFFE Lat: -27.22 Lon: 153.09 Height: 12.6 m
Data from the previous 72 hours. | See also: Recent months at Redcliffe
Date/Time
EST
Temp
°C
App
Temp
°C
Dew
Point
°C
Rel
Hum
%
Delta-T
°C
Wind Press
QNH
hPa
Press
MSL
hPa
Rain since
9am
mm
Dir  Spd
km/h
Gust
km/h
Spd
kts
Gust
kts
17/05:00pm 27.3 27.0 22.5 75 3.2 NE 28 32 15 17 1009.6 1009.5 0.0
17/04:30pm 28.0 27.5 22.9 74 3.5 NE 30 33 16 18 1009.3 1009.2 0.0
17/04:00pm 28.0 27.9 22.9 74 3.5 NE 28 33 15 18 1009.0 1008.9 0.0
17/03:30pm 28.4 29.4 22.2 69 4.2 NE 20 24 11 13 1009.1 1009.0 0.0
17/03:00pm 28.6 29.8 22.1 68 4.4 ENE 19 24 10 13 1009.3 1009.2 0.0
17/02:30pm 28.7 29.7 22.2 68 4.4 ENE 20 24 11 13 1009.3 1009.2 0.0
17/02:00pm 29.3 30.6 23.3 70 4.1 ENE 22 26 12 14 1009.4 1009.3 0.0
17/01:30pm 28.2 28.2 21.7 68 4.4 ENE 24 28 13 15 1009.6 1009.5 0.0
17/01:00pm 28.5 28.9 22.5 70 4.1 ENE 24 26 13 14 1009.7 1009.6 0.0
17/12:30pm 28.9 29.0 21.9 66 4.7 ENE 24 26 13 14 1010.0 1009.9 0.0
17/12:00pm 28.9 30.0 21.9 66 4.7 ENE 19 22 10 12 1010.3 1010.2 0.0
17/11:30am 28.9 30.2 21.7 65 4.8 ENE 17 19 9 10 1010.6 1010.5 0.0
17/11:00am 28.7 30.6 22.0 67 4.5 E 15 17 8 9 1010.7 1010.6 0.0
17/10:30am 28.8 30.7 22.1 67 4.5 ENE 15 19 8 10 1010.6 1010.5 0.0
17/10:00am 28.6 30.0 20.3 60 5.5 ENE 13 15 7 8 1010.8 1010.7 0.0
17/09:30am 28.1 29.4 20.1 61 5.2 NE 13 15 7 8 1011.1 1011.0 0.0
17/09:00am 28.6 31.3 22.8 71 4.0 NE 13 15 7 8 1011.2 1011.1 0.0
17/08:30am 27.7 30.8 22.2 72 3.7 N 9 13 5 7 1011.2 1011.1 0.0
17/08:00am 26.4 29.2 21.6 75 3.2 NNW 9 13 5 7 1011.0 1010.9 0.0
17/07:30am 26.3 28.5 21.1 73 3.4 N 11 15 6 8 1010.8 1010.7 0.0
17/07:00am 26.5 29.6 22.1 77 3.0 WNW 9 13 5 7 1010.6 1010.5 0.0
17/06:30am 24.8 29.1 21.9 84 1.9 NW 2 7 1 4 1010.9 1010.8 0.0
17/06:00am 24.5 28.0 22.2 87 1.5 NW 7 11 4 6 1010.6 1010.5 0.0
17/05:30am 24.0 26.9 21.7 87 1.5 NW 9 11 5 6 1010.7 1010.6 0.0
17/05:00am 23.9 26.7 21.6 87 1.5 NW 9 13 5 7 1009.9 1009.8 0.0
17/04:30am 24.8 27.0 21.1 80 2.4 NNW 11 13 6 7 1009.1 1009.0 0.0
17/04:00am 24.7 27.5 21.6 83 2.1 N 9 11 5 6 1009.5 1009.4 0.0
17/03:30am 24.7 27.7 22.0 85 1.8 N 9 13 5 7 1008.9 1008.8 0.0
17/03:00am 24.7 27.3 22.0 85 1.8 NNW 11 15 6 8 1009.0 1008.9 0.0
17/02:30am 25.0 27.7 22.1 84 1.9 N 11 15 6 8 1009.0 1008.9 0.0
17/02:00am 25.4 27.8 22.3 83 2.1 N 13 17 7 9 1009.3 1009.2 0.0
17/01:30am 25.6 27.0 22.5 83 2.1 N 19 22 10 12 1009.4 1009.3 0.0
17/01:00am 25.6 26.8 22.1 81 2.3 NNE 19 22 10 12 1009.5 1009.4 0.0
17/12:30am 25.6 26.7 22.3 82 2.2 NNE 20 24 11 13 1009.4 1009.3 0.0
17/12:00am 25.6 26.7 22.3 82 2.2 NNE 20 24 11 13 1009.5 1009.4 0.0
 
Date/Time
EST
Temp
°C
App
Temp
°C
Dew
Point
°C
Rel
Hum
%
Delta-T
°C
Wind Press
QNH
hPa
Press
MSL
hPa
Rain since
9am
mm
Dir  Spd
km/h
Gust
km/h
Spd
kts
Gust
kts
16/11:30pm 25.6 26.7 22.3 82 2.2 NNE 20 26 11 14 1009.4 1009.3 0.0
16/11:00pm 25.7 26.7 22.2 81 2.3 NNE 20 26 11 14 1009.4 1009.3 0.0
16/10:30pm 25.8 27.1 22.3 81 2.4 N 19 24 10 13 1010.0 1009.9 0.0
16/10:00pm 25.9 26.9 22.2 80 2.5 N 20 28 11 15 1010.0 1009.9 0.0
16/09:30pm 26.0 27.2 22.1 79 2.6 N 19 24 10 13 1009.9 1009.8 0.0
16/09:00pm 26.2 26.0 22.1 78 2.8 NNE 26 30 14 16 1009.6 1009.5 0.0
16/08:30pm 26.4 26.6 22.0 77 2.9 NNE 24 26 13 14 1009.4 1009.3 0.0
16/08:00pm 26.4 26.6 22.0 77 3.0 NNE 24 30 13 16 1009.1 1009.0 0.0
16/07:30pm 26.4 25.6 22.3 78 2.8 NNE 30 35 16 19 1008.3 1008.2 0.0
16/07:00pm 26.4 25.4 22.0 77 3.0 NNE 30 35 16 19 1007.8 1007.7 0.0
16/06:30pm 26.6 25.6 22.0 76 3.1 NNE 30 35 16 19 1007.5 1007.4 0.0
16/06:00pm 27.0 25.8 22.2 75 3.2 NNE 32 35 17 19 1007.3 1007.2 0.0
16/05:30pm 27.3 26.9 22.3 74 3.4 NNE 28 32 15 17 1007.2 1007.1 0.0
16/05:00pm 27.7 26.7 22.6 74 3.5 NNE 32 35 17 19 1006.8 1006.7 0.0
16/04:30pm 27.6 26.4 22.3 73 3.6 NE 32 35 17 19 1006.2 1006.1 0.0
16/04:00pm 27.8 26.8 22.7 74 3.5 NE 32 37 17 20 1006.3 1006.2 0.0
16/03:30pm 27.4 26.1 21.4 70 4.0 NE 30 35 16 19 1006.7 1006.6 0.0
16/03:00pm 27.6 27.1 22.1 72 3.7 NE 28 33 15 18 1006.8 1006.7 0.0
16/02:30pm 27.7 27.1 22.0 71 3.8 NE 28 32 15 17 1006.9 1006.8 0.0
16/02:00pm 27.6 27.3 21.9 71 3.8 NE 26 30 14 16 1007.0 1006.9 0.0
16/01:30pm 28.1 28.6 22.6 72 3.7 NE 24 28 13 15 1007.1 1007.0 0.0
16/01:00pm 28.4 29.5 22.4 70 4.1 NE 20 24 11 13 1007.1 1007.0 0.0
16/12:30pm 28.0 29.1 22.0 70 4.0 ENE 19 22 10 12 1007.4 1007.3 0.0
16/12:00pm 29.4 30.3 21.9 64 5.1 E 20 24 11 13 1007.7 1007.6 0.0
16/11:30am 29.2 31.6 22.2 66 4.7 N 13 20 7 11 1007.8 1007.7 0.0
16/11:00am 28.0 28.5 22.0 70 4.0 NNE 22 28 12 15 1008.3 1008.2 0.0
16/10:30am 27.8 28.7 20.9 66 4.6 NNE 17 24 9 13 1008.5 1008.4 0.0
16/10:00am 27.3 28.3 21.1 69 4.1 NE 17 19 9 10 1008.7 1008.6 0.0
16/09:30am 26.3 27.7 20.4 70 3.9 NNW 13 19 7 10 1008.8 1008.7 0.0
16/09:00am 25.9 27.2 20.2 71 3.7 NNW 13 19 7 10 1008.7 1008.6 10.0
16/08:30am 25.7 27.6 20.5 73 3.4 WNW 11 15 6 8 1009.0 1008.9 10.0
16/08:00am 24.8 26.1 19.2 71 3.6 NW 11 15 6 8 1009.4 1009.3 10.0
16/07:30am 24.5 26.8 20.6 79 2.5 WNW 9 13 5 7 1009.5 1009.4 10.0
16/07:00am 23.1 25.3 20.4 85 1.8 NW 9 11 5 6 1009.1 1009.0 10.0
16/06:30am 22.0 23.7 20.1 89 1.2 NW 11 15 6 8 1009.1 1009.0 10.0
16/06:00am 21.5 22.7 20.0 91 1.0 W 13 17 7 9 1009.6 1009.5 10.0
16/05:30am 22.8 23.9 20.5 87 1.5 NNW 15 22 8 12 1008.3 1008.2 10.0
16/05:00am 22.4 20.0 20.3 88 1.4 NE 33 39 18 21 1007.6 1007.5 10.0
16/04:30am 22.0 18.6 20.6 92 0.9 NE 39 50 21 27 1008.2 1008.1 9.4
16/04:22am 22.2 21.0 20.8 92 0.9 ENE 28 41 15 22 1008.8 1008.7 8.6
16/04:00am 21.9 23.0 21.2 96 0.5 NNE 17 22 9 12 1009.6 1009.5 7.0
16/03:30am 22.1 23.3 20.7 92 0.9 ESE 15 28 8 15 1009.8 1009.7 5.8
16/03:00am 22.1 22.1 20.9 93 0.8 SW 22 30 12 16 1010.6 1010.5 1.2
16/02:30am 23.9 25.1 20.6 82 2.2 WSW 15 22 8 12 1009.7 1009.6 0.0
16/02:23am 24.4 26.2 20.3 78 2.7 W 11 17 6 9 1009.3 1009.2 0.0
16/02:00am 24.2 22.2 20.7 81 2.3 N 32 39 17 21 1007.3 1007.2 0.0
16/01:30am 24.5 24.6 20.4 78 2.7 N 20 30 11 16 1008.1 1008.0 0.0
16/01:00am 24.7 25.4 20.4 77 2.8 N 17 22 9 12 1008.8 1008.7 0.0
16/12:30am 24.5 25.3 20.6 79 2.5 N 17 22 9 12 1008.8 1008.7 0.0
16/12:00am 24.4 25.8 20.3 78 2.7 NNW 13 17 7 9 1009.0 1008.9 0.0
 
Date/Time
EST
Temp
°C
App
Temp
°C
Dew
Point
°C
Rel
Hum
%
Delta-T
°C
Wind Press
QNH
hPa
Press
MSL
hPa
Rain since
9am
mm
Dir  Spd
km/h
Gust
km/h
Spd
kts
Gust
kts
15/11:30pm 24.7 25.3 21.0 80 2.4 N 19 24 10 13 1009.0 1008.9 0.0
15/11:00pm 25.3 24.7 20.5 75 3.1 N 24 33 13 18 1009.2 1009.1 0.0
15/10:30pm 25.4 24.4 20.4 74 3.3 N 26 33 14 18 1009.2 1009.1 0.0
15/10:00pm 25.8 24.2 20.8 74 3.3 N 30 37 16 20 1009.0 1008.9 0.0
15/09:30pm 25.7 23.6 20.9 75 3.2 NNE 33 41 18 22 1009.2 1009.1 0.0
15/09:00pm 25.7 24.2 20.9 75 3.2 N 30 35 16 19 1009.0 1008.9 0.0
15/08:30pm 25.8 24.2 21.5 77 2.9 NNE 32 37 17 20 1008.9 1008.8 0.0
15/08:00pm 25.8 24.0 21.2 76 3.0 NNE 32 35 17 19 1008.3 1008.2 0.0
15/07:30pm 26.0 24.5 21.0 74 3.3 NNE 30 33 16 18 1008.5 1008.4 0.0
15/07:00pm 26.0 24.1 21.0 74 3.3 NNE 32 37 17 20 1008.8 1008.7 0.0
15/06:30pm 26.3 24.7 20.8 71 3.6 NNE 30 35 16 19 1008.3 1008.2 0.0
15/06:00pm 26.3 24.4 20.2 69 4.0 NNE 30 35 16 19 1006.9 1006.8 0.0
15/05:48pm 26.5 24.3 20.3 68 4.1 NNE 32 37 17 20 1005.8 1005.7 0.0
15/05:30pm 26.9 24.9 20.7 69 4.1 NE 32 35 17 19 1007.9 1007.8 0.0
15/05:18pm 27.3 25.6 20.6 67 4.4 NE 30 35 16 19 1009.4 1009.3 0.0
15/05:00pm 27.2 25.5 20.5 67 4.4 NE 30 33 16 18 1007.4 1007.3 0.0
15/04:30pm 27.3 25.4 20.9 68 4.2 NE 32 35 17 19 1007.2 1007.1 0.0
15/04:00pm 27.5 26.1 21.1 68 4.3 NE 30 32 16 17 1007.5 1007.4 0.0
15/03:30pm 27.4 25.9 20.2 65 4.7 NE 28 32 15 17 1007.6 1007.5 0.0
15/03:00pm 27.5 26.2 20.6 66 4.6 NE 28 32 15 17 1007.7 1007.6 0.0
15/02:30pm 27.7 26.2 20.3 64 4.9 NE 28 32 15 17 1008.0 1007.9 0.0
15/02:00pm 27.4 26.1 20.7 67 4.4 NE 28 32 15 17 1008.2 1008.1 0.0
15/01:30pm 27.7 26.9 20.8 66 4.6 NE 26 30 14 16 1008.4 1008.3 0.0
15/01:00pm 27.2 26.6 20.5 67 4.4 NE 24 30 13 16 1008.5 1008.4 0.0
15/12:30pm 28.0 27.9 20.8 65 4.8 ENE 22 28 12 15 1008.9 1008.8 0.0
15/12:00pm 27.6 28.3 21.2 68 4.3 ENE 19 24 10 13 1009.2 1009.1 0.0
15/11:30am 28.2 29.6 21.0 65 4.8 ENE 15 19 8 10 1009.4 1009.3 0.0
15/11:00am 27.5 29.3 21.1 68 4.3 ENE 13 17 7 9 1009.5 1009.4 0.0
15/10:30am 27.3 29.2 20.6 67 4.4 E 11 15 6 8 1009.7 1009.6 0.0
15/10:00am 27.1 29.1 20.0 65 4.6 E 9 13 5 7 1009.9 1009.8 0.0
15/09:30am 27.2 29.8 20.0 64 4.7 E 6 9 3 5 1010.0 1009.9 0.0
15/09:00am 27.0 29.2 20.3 66 4.4 ESE 9 9 5 5 1010.0 1009.9 0.0
15/08:30am 25.5 26.5 18.7 66 4.3 SE 11 13 6 7 1010.3 1010.2 0.0
15/08:00am 26.3 28.6 20.6 71 3.7 SSE 9 11 5 6 1010.7 1010.6 0.0
15/07:30am 25.2 27.7 20.2 74 3.3 SW 7 11 4 6 1010.7 1010.6 0.0
15/07:00am 23.7 25.0 20.2 81 2.3 SW 13 17 7 9 1010.8 1010.7 0.0
15/06:30am 22.4 24.1 20.1 87 1.5 WSW 11 17 6 9 1010.5 1010.4 0.0
15/06:00am 21.9 25.2 20.0 89 1.2 WSW 2 7 1 4 1009.8 1009.7 0.0
15/05:30am 20.9 23.6 20.2 96 0.4 WSW 6 11 3 6 1009.4 1009.3 0.0
15/05:00am 20.4 21.7 19.4 94 0.6 WSW 11 13 6 7 1009.6 1009.5 0.0
15/04:30am 20.6 21.6 19.4 93 0.8 WSW 13 15 7 8 1009.6 1009.5 0.0
15/04:00am 20.6 22.3 19.4 93 0.8 WSW 9 11 5 6 1009.6 1009.5 0.0
15/03:30am 20.9 22.3 19.6 92 0.8 W 11 15 6 8 1009.5 1009.4 0.0
15/03:00am 21.5 23.1 20.0 91 1.0 W 11 15 6 8 1009.4 1009.3 0.0
15/02:30am 22.0 23.3 19.4 85 1.7 N 11 15 6 8 1009.5 1009.4 0.0
15/02:00am 22.4 22.4 19.0 81 2.2 ENE 17 19 9 10 1009.6 1009.5 0.0
15/01:30am 23.9 25.1 19.0 74 3.1 NE 11 15 6 8 1010.2 1010.1 0.0
15/01:00am 24.2 24.3 19.1 73 3.3 ENE 17 20 9 11 1010.0 1009.9 0.0
15/12:30am 24.3 24.7 18.9 72 3.4 ENE 15 20 8 11 1010.0 1009.9 0.0
15/12:00am 24.4 24.3 18.8 71 3.6 ENE 17 19 9 10 1010.4 1010.3 0.0
 
Date/Time
EST
Temp
°C
App
Temp
°C
Dew
Point
°C
Rel
Hum
%
Delta-T
°C
Wind Press
QNH
hPa
Press
MSL
hPa
Rain since
9am
mm
Dir  Spd
km/h
Gust
km/h
Spd
kts
Gust
kts
14/11:30pm 24.5 24.4 18.7 70 3.7 ENE 17 20 9 11 1011.0 1010.9 0.0
14/11:00pm 24.6 24.8 18.5 69 3.9 ENE 15 20 8 11 1011.4 1011.3 0.0
14/10:30pm 24.7 24.8 19.1 71 3.6 ENE 17 20 9 11 1011.7 1011.6 0.0
14/10:00pm 24.6 24.2 19.0 71 3.6 ENE 19 22 10 12 1011.8 1011.7 0.0
14/09:30pm 24.9 24.8 18.8 69 3.9 ENE 17 20 9 11 1011.8 1011.7 0.0
14/09:00pm 24.9 24.8 18.8 69 3.9 ENE 17 19 9 10 1011.7 1011.6 0.0
14/08:30pm 24.8 24.0 18.5 68 4.0 ENE 20 24 11 13 1011.7 1011.6 0.0
14/08:00pm 24.7 24.3 18.9 70 3.7 ENE 19 26 10 14 1011.5 1011.4 0.0
14/07:30pm 25.2 24.2 18.9 68 4.0 ENE 22 26 12 14 1011.2 1011.1 0.0
14/07:00pm 25.3 24.0 18.2 64 4.5 ENE 22 28 12 15 1011.1 1011.0 0.0
14/06:30pm 25.5 24.1 18.9 67 4.2 ENE 24 28 13 15 1011.2 1011.1 0.0
14/06:00pm 25.7 24.3 18.9 66 4.3 ENE 24 28 13 15 1010.9 1010.8 0.0
14/05:30pm 26.0 24.6 18.7 64 4.7 E 24 28 13 15 1010.5 1010.4 0.0

Latest Capital City Observations: Canberra | Sydney | Melbourne | Brisbane | Adelaide | Perth | Hobart | Darwin

Other formats

Comma delimited format used in spreadsheet applications
http://www.bom.gov.au/fwo/IDQ60901/IDQ60901.95591.axf

JavaScript Object Notation format (JSON) in row-major order
http://www.bom.gov.au/fwo/IDQ60901/IDQ60901.95591.json

Data quality

Most of these data are generated automatically and are frequently updated. Quality checks on data are not normally performed. It is possible for incorrect values to appear. Refer to information at About Latest Weather Observations and please check the disclaimer before using these data.